sensor_id;sensor_type;location;lat;lon;timestamp;P1;durP1;ratioP1;P2;durP2;ratioP2
15643;SDS011;7921;43.586;1.408;2024-02-21T00:01:29;9.30;;;8.00;;
15643;SDS011;7921;43.586;1.408;2024-02-21T00:03:55;8.37;;;7.57;;
15643;SDS011;7921;43.586;1.408;2024-02-21T00:06:20;8.67;;;7.77;;
15643;SDS011;7921;43.586;1.408;2024-02-21T00:08:45;8.67;;;7.77;;
15643;SDS011;7921;43.586;1.408;2024-02-21T00:11:11;10.20;;;9.10;;
15643;SDS011;7921;43.586;1.408;2024-02-21T00:13:36;10.20;;;8.70;;
15643;SDS011;7921;43.586;1.408;2024-02-21T00:16:01;10.47;;;9.37;;
15643;SDS011;7921;43.586;1.408;2024-02-21T00:18:27;11.00;;;9.10;;
15643;SDS011;7921;43.586;1.408;2024-02-21T00:20:52;10.40;;;8.87;;
15643;SDS011;7921;43.586;1.408;2024-02-21T00:23:18;10.43;;;9.07;;
15643;SDS011;7921;43.586;1.408;2024-02-21T00:25:43;9.63;;;8.73;;
15643;SDS011;7921;43.586;1.408;2024-02-21T00:28:09;9.03;;;7.87;;
15643;SDS011;7921;43.586;1.408;2024-02-21T00:30:34;9.67;;;8.43;;
15643;SDS011;7921;43.586;1.408;2024-02-21T00:32:59;10.53;;;9.43;;
15643;SDS011;7921;43.586;1.408;2024-02-21T00:35:25;9.97;;;8.37;;
15643;SDS011;7921;43.586;1.408;2024-02-21T00:37:51;9.53;;;8.53;;
15643;SDS011;7921;43.586;1.408;2024-02-21T00:40:16;10.60;;;9.23;;
15643;SDS011;7921;43.586;1.408;2024-02-21T00:42:45;10.93;;;8.70;;
15643;SDS011;7921;43.586;1.408;2024-02-21T00:45:10;9.83;;;8.70;;
15643;SDS011;7921;43.586;1.408;2024-02-21T00:47:36;10.13;;;8.73;;
15643;SDS011;7921;43.586;1.408;2024-02-21T00:50:02;10.33;;;9.27;;
15643;SDS011;7921;43.586;1.408;2024-02-21T00:52:27;10.10;;;9.10;;
15643;SDS011;7921;43.586;1.408;2024-02-21T00:54:52;11.40;;;9.60;;
15643;SDS011;7921;43.586;1.408;2024-02-21T00:57:18;11.07;;;9.00;;
15643;SDS011;7921;43.586;1.408;2024-02-21T00:59:43;9.97;;;8.83;;
15643;SDS011;7921;43.586;1.408;2024-02-21T01:02:08;9.47;;;8.53;;
15643;SDS011;7921;43.586;1.408;2024-02-21T01:04:34;11.80;;;8.53;;
15643;SDS011;7921;43.586;1.408;2024-02-21T01:07:00;8.80;;;7.90;;
15643;SDS011;7921;43.586;1.408;2024-02-21T01:09:25;11.70;;;8.90;;
15643;SDS011;7921;43.586;1.408;2024-02-21T01:11:50;8.60;;;7.80;;
15643;SDS011;7921;43.586;1.408;2024-02-21T01:14:16;8.53;;;7.63;;
15643;SDS011;7921;43.586;1.408;2024-02-21T01:16:41;9.97;;;8.77;;
15643;SDS011;7921;43.586;1.408;2024-02-21T01:19:07;8.90;;;8.00;;
15643;SDS011;7921;43.586;1.408;2024-02-21T01:21:32;9.03;;;8.13;;
15643;SDS011;7921;43.586;1.408;2024-02-21T01:23:57;9.57;;;8.40;;
15643;SDS011;7921;43.586;1.408;2024-02-21T01:26:23;8.27;;;7.30;;
15643;SDS011;7921;43.586;1.408;2024-02-21T01:28:48;8.60;;;7.87;;
15643;SDS011;7921;43.586;1.408;2024-02-21T01:31:13;10.07;;;8.20;;
15643;SDS011;7921;43.586;1.408;2024-02-21T01:33:40;10.70;;;7.83;;
15643;SDS011;7921;43.586;1.408;2024-02-21T01:36:06;9.20;;;8.33;;
15643;SDS011;7921;43.586;1.408;2024-02-21T01:38:32;9.63;;;8.17;;
15643;SDS011;7921;43.586;1.408;2024-02-21T01:40:57;8.13;;;7.33;;
15643;SDS011;7921;43.586;1.408;2024-02-21T01:43:23;7.70;;;6.90;;
15643;SDS011;7921;43.586;1.408;2024-02-21T01:45:54;7.63;;;6.67;;
15643;SDS011;7921;43.586;1.408;2024-02-21T01:48:23;7.47;;;6.70;;
15643;SDS011;7921;43.586;1.408;2024-02-21T01:50:50;8.07;;;6.33;;
15643;SDS011;7921;43.586;1.408;2024-02-21T01:53:16;7.63;;;6.70;;
15643;SDS011;7921;43.586;1.408;2024-02-21T01:55:45;7.47;;;6.20;;
15643;SDS011;7921;43.586;1.408;2024-02-21T01:58:11;8.33;;;7.40;;
15643;SDS011;7921;43.586;1.408;2024-02-21T02:00:43;10.83;;;6.83;;
15643;SDS011;7921;43.586;1.408;2024-02-21T02:03:10;6.90;;;6.20;;
15643;SDS011;7921;43.586;1.408;2024-02-21T02:08:11;7.63;;;6.20;;
15643;SDS011;7921;43.586;1.408;2024-02-21T02:10:38;7.30;;;6.60;;
15643;SDS011;7921;43.586;1.408;2024-02-21T02:13:05;7.00;;;6.30;;
15643;SDS011;7921;43.586;1.408;2024-02-21T02:18:04;6.87;;;6.17;;
15643;SDS011;7921;43.586;1.408;2024-02-21T02:20:30;7.53;;;6.47;;
15643;SDS011;7921;43.586;1.408;2024-02-21T02:22:55;6.17;;;5.57;;
15643;SDS011;7921;43.586;1.408;2024-02-21T02:25:22;6.90;;;6.00;;
15643;SDS011;7921;43.586;1.408;2024-02-21T02:27:47;6.30;;;5.70;;
15643;SDS011;7921;43.586;1.408;2024-02-21T02:30:12;6.77;;;6.07;;
15643;SDS011;7921;43.586;1.408;2024-02-21T02:32:38;7.00;;;5.83;;
15643;SDS011;7921;43.586;1.408;2024-02-21T02:35:03;7.90;;;6.20;;
15643;SDS011;7921;43.586;1.408;2024-02-21T02:37:29;6.90;;;6.20;;
15643;SDS011;7921;43.586;1.408;2024-02-21T02:39:54;6.80;;;6.10;;
15643;SDS011;7921;43.586;1.408;2024-02-21T02:42:20;6.43;;;5.83;;
15643;SDS011;7921;43.586;1.408;2024-02-21T02:44:45;7.03;;;5.53;;
15643;SDS011;7921;43.586;1.408;2024-02-21T02:47:10;6.73;;;6.03;;
15643;SDS011;7921;43.586;1.408;2024-02-21T02:49:36;5.30;;;4.80;;
15643;SDS011;7921;43.586;1.408;2024-02-21T02:52:01;6.60;;;5.60;;
15643;SDS011;7921;43.586;1.408;2024-02-21T02:54:27;6.07;;;4.97;;
15643;SDS011;7921;43.586;1.408;2024-02-21T02:56:52;6.70;;;5.10;;
15643;SDS011;7921;43.586;1.408;2024-02-21T02:59:18;5.97;;;5.03;;
15643;SDS011;7921;43.586;1.408;2024-02-21T03:01:43;5.77;;;5.07;;
15643;SDS011;7921;43.586;1.408;2024-02-21T03:04:08;6.73;;;5.37;;
15643;SDS011;7921;43.586;1.408;2024-02-21T03:06:34;7.27;;;4.87;;
15643;SDS011;7921;43.586;1.408;2024-02-21T03:08:59;7.43;;;5.23;;
15643;SDS011;7921;43.586;1.408;2024-02-21T03:11:25;5.20;;;4.70;;
15643;SDS011;7921;43.586;1.408;2024-02-21T03:13:54;5.87;;;5.27;;
15643;SDS011;7921;43.586;1.408;2024-02-21T03:16:21;5.73;;;5.23;;
15643;SDS011;7921;43.586;1.408;2024-02-21T03:18:47;5.67;;;5.10;;
15643;SDS011;7921;43.586;1.408;2024-02-21T03:21:12;7.37;;;5.47;;
15643;SDS011;7921;43.586;1.408;2024-02-21T03:23:38;6.57;;;5.83;;
15643;SDS011;7921;43.586;1.408;2024-02-21T03:26:03;5.63;;;4.93;;
15643;SDS011;7921;43.586;1.408;2024-02-21T03:28:28;6.53;;;5.40;;
15643;SDS011;7921;43.586;1.408;2024-02-21T03:30:54;5.57;;;4.90;;
15643;SDS011;7921;43.586;1.408;2024-02-21T03:33:19;5.63;;;5.10;;
15643;SDS011;7921;43.586;1.408;2024-02-21T03:35:45;6.10;;;5.50;;
15643;SDS011;7921;43.586;1.408;2024-02-21T03:38:11;6.43;;;5.17;;
15643;SDS011;7921;43.586;1.408;2024-02-21T03:40:36;5.50;;;5.00;;
15643;SDS011;7921;43.586;1.408;2024-02-21T03:43:02;6.33;;;4.53;;
15643;SDS011;7921;43.586;1.408;2024-02-21T03:45:27;5.47;;;4.97;;
15643;SDS011;7921;43.586;1.408;2024-02-21T03:47:52;5.40;;;4.57;;
15643;SDS011;7921;43.586;1.408;2024-02-21T03:50:18;5.43;;;4.93;;
15643;SDS011;7921;43.586;1.408;2024-02-21T03:52:43;5.20;;;4.70;;
15643;SDS011;7921;43.586;1.408;2024-02-21T03:55:09;4.50;;;4.10;;
15643;SDS011;7921;43.586;1.408;2024-02-21T03:57:34;5.40;;;4.87;;
15643;SDS011;7921;43.586;1.408;2024-02-21T03:59:59;5.87;;;5.10;;
15643;SDS011;7921;43.586;1.408;2024-02-21T04:02:25;5.57;;;5.07;;
15643;SDS011;7921;43.586;1.408;2024-02-21T04:04:50;6.13;;;4.83;;
15643;SDS011;7921;43.586;1.408;2024-02-21T04:07:15;5.33;;;4.60;;
15643;SDS011;7921;43.586;1.408;2024-02-21T04:09:41;6.17;;;5.40;;
15643;SDS011;7921;43.586;1.408;2024-02-21T04:12:07;7.07;;;4.90;;
15643;SDS011;7921;43.586;1.408;2024-02-21T04:14:33;8.03;;;5.27;;
15643;SDS011;7921;43.586;1.408;2024-02-21T04:16:59;5.97;;;4.97;;
15643;SDS011;7921;43.586;1.408;2024-02-21T04:19:25;6.63;;;4.87;;
15643;SDS011;7921;43.586;1.408;2024-02-21T04:21:50;6.50;;;5.90;;
15643;SDS011;7921;43.586;1.408;2024-02-21T04:24:16;5.97;;;5.40;;
15643;SDS011;7921;43.586;1.408;2024-02-21T04:26:41;6.53;;;5.10;;
15643;SDS011;7921;43.586;1.408;2024-02-21T04:29:06;6.17;;;5.37;;
15643;SDS011;7921;43.586;1.408;2024-02-21T04:31:32;8.00;;;5.53;;
15643;SDS011;7921;43.586;1.408;2024-02-21T04:33:58;6.30;;;5.67;;
15643;SDS011;7921;43.586;1.408;2024-02-21T04:36:23;6.17;;;5.40;;
15643;SDS011;7921;43.586;1.408;2024-02-21T04:38:49;6.27;;;5.67;;
15643;SDS011;7921;43.586;1.408;2024-02-21T04:41:15;6.00;;;5.43;;
15643;SDS011;7921;43.586;1.408;2024-02-21T04:43:40;6.10;;;5.50;;
15643;SDS011;7921;43.586;1.408;2024-02-21T04:46:06;7.30;;;5.70;;
15643;SDS011;7921;43.586;1.408;2024-02-21T04:48:31;6.13;;;5.53;;
15643;SDS011;7921;43.586;1.408;2024-02-21T04:50:57;8.10;;;6.23;;
15643;SDS011;7921;43.586;1.408;2024-02-21T04:53:22;7.33;;;5.87;;
15643;SDS011;7921;43.586;1.408;2024-02-21T04:55:47;6.43;;;5.80;;
15643;SDS011;7921;43.586;1.408;2024-02-21T04:58:13;7.17;;;5.87;;
15643;SDS011;7921;43.586;1.408;2024-02-21T05:00:38;7.63;;;5.87;;
15643;SDS011;7921;43.586;1.408;2024-02-21T05:03:04;6.10;;;5.50;;
15643;SDS011;7921;43.586;1.408;2024-02-21T05:05:29;7.23;;;5.77;;
15643;SDS011;7921;43.586;1.408;2024-02-21T05:07:54;7.53;;;5.97;;
15643;SDS011;7921;43.586;1.408;2024-02-21T05:10:20;5.77;;;5.27;;
15643;SDS011;7921;43.586;1.408;2024-02-21T05:12:45;7.30;;;5.47;;
15643;SDS011;7921;43.586;1.408;2024-02-21T05:15:11;6.33;;;5.73;;
15643;SDS011;7921;43.586;1.408;2024-02-21T05:17:36;5.63;;;4.80;;
15643;SDS011;7921;43.586;1.408;2024-02-21T05:20:02;5.33;;;4.87;;
15643;SDS011;7921;43.586;1.408;2024-02-21T05:22:27;5.40;;;4.77;;
15643;SDS011;7921;43.586;1.408;2024-02-21T05:24:53;5.23;;;4.47;;
15643;SDS011;7921;43.586;1.408;2024-02-21T05:27:18;5.73;;;4.77;;
15643;SDS011;7921;43.586;1.408;2024-02-21T05:29:44;4.93;;;4.20;;
15643;SDS011;7921;43.586;1.408;2024-02-21T05:32:09;5.03;;;4.63;;
15643;SDS011;7921;43.586;1.408;2024-02-21T05:34:35;6.27;;;4.70;;
15643;SDS011;7921;43.586;1.408;2024-02-21T05:37:00;9.10;;;5.13;;
15643;SDS011;7921;43.586;1.408;2024-02-21T05:39:25;4.70;;;4.30;;
15643;SDS011;7921;43.586;1.408;2024-02-21T05:41:51;5.20;;;4.70;;
15643;SDS011;7921;43.586;1.408;2024-02-21T05:44:17;5.43;;;4.93;;
15643;SDS011;7921;43.586;1.408;2024-02-21T05:46:43;3.90;;;3.53;;
15643;SDS011;7921;43.586;1.408;2024-02-21T05:49:08;5.53;;;5.03;;
15643;SDS011;7921;43.586;1.408;2024-02-21T05:51:34;6.03;;;5.40;;
15643;SDS011;7921;43.586;1.408;2024-02-21T05:53:59;5.77;;;4.83;;
15643;SDS011;7921;43.586;1.408;2024-02-21T05:56:25;7.20;;;5.27;;
15643;SDS011;7921;43.586;1.408;2024-02-21T05:58:50;5.50;;;4.60;;
15643;SDS011;7921;43.586;1.408;2024-02-21T06:01:16;5.97;;;5.37;;
15643;SDS011;7921;43.586;1.408;2024-02-21T06:03:42;5.90;;;5.10;;
15643;SDS011;7921;43.586;1.408;2024-02-21T06:06:08;5.67;;;5.00;;
15643;SDS011;7921;43.586;1.408;2024-02-21T06:08:33;5.73;;;5.13;;
15643;SDS011;7921;43.586;1.408;2024-02-21T06:10:58;6.57;;;5.47;;
15643;SDS011;7921;43.586;1.408;2024-02-21T06:13:24;5.40;;;4.93;;
15643;SDS011;7921;43.586;1.408;2024-02-21T06:15:50;5.53;;;5.03;;
15643;SDS011;7921;43.586;1.408;2024-02-21T06:18:16;5.70;;;5.07;;
15643;SDS011;7921;43.586;1.408;2024-02-21T06:20:42;7.03;;;5.10;;
15643;SDS011;7921;43.586;1.408;2024-02-21T06:23:08;5.53;;;4.83;;
15643;SDS011;7921;43.586;1.408;2024-02-21T06:25:33;4.80;;;4.30;;
15643;SDS011;7921;43.586;1.408;2024-02-21T06:27:59;5.20;;;4.70;;
15643;SDS011;7921;43.586;1.408;2024-02-21T06:30:24;6.60;;;4.60;;
15643;SDS011;7921;43.586;1.408;2024-02-21T06:32:50;5.47;;;4.87;;
15643;SDS011;7921;43.586;1.408;2024-02-21T06:35:15;5.23;;;4.73;;
15643;SDS011;7921;43.586;1.408;2024-02-21T06:37:41;6.77;;;6.13;;
15643;SDS011;7921;43.586;1.408;2024-02-21T06:40:07;6.67;;;5.67;;
15643;SDS011;7921;43.586;1.408;2024-02-21T06:42:32;8.07;;;6.13;;
15643;SDS011;7921;43.586;1.408;2024-02-21T06:44:58;6.13;;;5.30;;
15643;SDS011;7921;43.586;1.408;2024-02-21T06:47:23;7.57;;;6.70;;
15643;SDS011;7921;43.586;1.408;2024-02-21T06:49:49;7.83;;;6.23;;
15643;SDS011;7921;43.586;1.408;2024-02-21T06:52:18;9.40;;;6.40;;
15643;SDS011;7921;43.586;1.408;2024-02-21T06:54:45;5.87;;;5.37;;
15643;SDS011;7921;43.586;1.408;2024-02-21T06:57:13;6.43;;;5.40;;
15643;SDS011;7921;43.586;1.408;2024-02-21T06:59:40;7.17;;;6.23;;
15643;SDS011;7921;43.586;1.408;2024-02-21T07:02:06;6.10;;;5.50;;
15643;SDS011;7921;43.586;1.408;2024-02-21T07:04:31;5.80;;;5.30;;
15643;SDS011;7921;43.586;1.408;2024-02-21T07:06:57;6.47;;;5.53;;
15643;SDS011;7921;43.586;1.408;2024-02-21T07:09:22;7.50;;;5.23;;
15643;SDS011;7921;43.586;1.408;2024-02-21T07:11:48;6.83;;;5.00;;
15643;SDS011;7921;43.586;1.408;2024-02-21T07:14:14;6.87;;;4.57;;
15643;SDS011;7921;43.586;1.408;2024-02-21T07:16:40;5.30;;;4.80;;
15643;SDS011;7921;43.586;1.408;2024-02-21T07:19:05;5.57;;;4.77;;
15643;SDS011;7921;43.586;1.408;2024-02-21T07:21:31;5.83;;;5.10;;
15643;SDS011;7921;43.586;1.408;2024-02-21T07:23:56;5.30;;;4.83;;
15643;SDS011;7921;43.586;1.408;2024-02-21T07:26:21;6.07;;;5.20;;
15643;SDS011;7921;43.586;1.408;2024-02-21T07:28:47;5.73;;;5.17;;
15643;SDS011;7921;43.586;1.408;2024-02-21T07:31:12;6.87;;;5.60;;
15643;SDS011;7921;43.586;1.408;2024-02-21T07:33:37;6.43;;;5.17;;
15643;SDS011;7921;43.586;1.408;2024-02-21T07:36:07;7.97;;;5.53;;
15643;SDS011;7921;43.586;1.408;2024-02-21T07:38:33;9.13;;;6.43;;
15643;SDS011;7921;43.586;1.408;2024-02-21T07:40:59;8.80;;;6.17;;
15643;SDS011;7921;43.586;1.408;2024-02-21T07:43:24;11.17;;;5.93;;
15643;SDS011;7921;43.586;1.408;2024-02-21T07:45:51;6.73;;;5.67;;
15643;SDS011;7921;43.586;1.408;2024-02-21T07:48:18;7.60;;;5.57;;
15643;SDS011;7921;43.586;1.408;2024-02-21T07:50:44;8.27;;;5.73;;
15643;SDS011;7921;43.586;1.408;2024-02-21T07:53:09;9.50;;;5.97;;
15643;SDS011;7921;43.586;1.408;2024-02-21T07:55:34;8.37;;;5.53;;
15643;SDS011;7921;43.586;1.408;2024-02-21T07:58:00;7.93;;;5.63;;
15643;SDS011;7921;43.586;1.408;2024-02-21T08:00:25;6.80;;;5.10;;
15643;SDS011;7921;43.586;1.408;2024-02-21T08:02:51;6.77;;;4.40;;
15643;SDS011;7921;43.586;1.408;2024-02-21T08:05:16;5.93;;;4.60;;
15643;SDS011;7921;43.586;1.408;2024-02-21T08:07:41;8.43;;;5.30;;
15643;SDS011;7921;43.586;1.408;2024-02-21T08:10:07;10.87;;;5.13;;
15643;SDS011;7921;43.586;1.408;2024-02-21T08:12:35;9.13;;;6.13;;
15643;SDS011;7921;43.586;1.408;2024-02-21T08:15:01;6.17;;;5.20;;
15643;SDS011;7921;43.586;1.408;2024-02-21T08:17:28;7.33;;;5.50;;
15643;SDS011;7921;43.586;1.408;2024-02-21T08:19:54;6.63;;;5.03;;
15643;SDS011;7921;43.586;1.408;2024-02-21T08:22:19;7.07;;;4.87;;
15643;SDS011;7921;43.586;1.408;2024-02-21T08:24:45;5.97;;;4.70;;
15643;SDS011;7921;43.586;1.408;2024-02-21T08:27:10;7.07;;;4.97;;
15643;SDS011;7921;43.586;1.408;2024-02-21T08:29:35;5.23;;;4.43;;
15643;SDS011;7921;43.586;1.408;2024-02-21T08:32:01;6.80;;;4.70;;
15643;SDS011;7921;43.586;1.408;2024-02-21T08:34:26;7.43;;;4.90;;
15643;SDS011;7921;43.586;1.408;2024-02-21T08:36:54;5.90;;;4.67;;
15643;SDS011;7921;43.586;1.408;2024-02-21T08:39:20;5.33;;;4.23;;
15643;SDS011;7921;43.586;1.408;2024-02-21T08:41:46;7.57;;;5.60;;
15643;SDS011;7921;43.586;1.408;2024-02-21T08:44:11;8.73;;;6.53;;
15643;SDS011;7921;43.586;1.408;2024-02-21T08:46:37;6.50;;;5.40;;
15643;SDS011;7921;43.586;1.408;2024-02-21T08:49:05;10.57;;;5.17;;
15643;SDS011;7921;43.586;1.408;2024-02-21T08:51:30;7.97;;;5.27;;
15643;SDS011;7921;43.586;1.408;2024-02-21T08:53:56;7.20;;;5.07;;
15643;SDS011;7921;43.586;1.408;2024-02-21T08:56:21;6.77;;;4.50;;
15643;SDS011;7921;43.586;1.408;2024-02-21T08:58:46;6.93;;;4.27;;
15643;SDS011;7921;43.586;1.408;2024-02-21T09:01:12;5.57;;;4.77;;
15643;SDS011;7921;43.586;1.408;2024-02-21T09:03:37;4.47;;;3.97;;
15643;SDS011;7921;43.586;1.408;2024-02-21T09:06:06;4.70;;;4.07;;
15643;SDS011;7921;43.586;1.408;2024-02-21T09:08:33;6.67;;;4.00;;
15643;SDS011;7921;43.586;1.408;2024-02-21T09:10:59;4.77;;;3.47;;
15643;SDS011;7921;43.586;1.408;2024-02-21T09:13:25;4.80;;;3.77;;
15643;SDS011;7921;43.586;1.408;2024-02-21T09:15:50;5.23;;;3.70;;
15643;SDS011;7921;43.586;1.408;2024-02-21T09:18:16;4.43;;;3.63;;
15643;SDS011;7921;43.586;1.408;2024-02-21T09:20:41;4.50;;;3.70;;
15643;SDS011;7921;43.586;1.408;2024-02-21T09:23:07;5.33;;;3.90;;
15643;SDS011;7921;43.586;1.408;2024-02-21T09:25:32;6.80;;;3.53;;
15643;SDS011;7921;43.586;1.408;2024-02-21T09:27:58;6.33;;;3.30;;
15643;SDS011;7921;43.586;1.408;2024-02-21T09:30:23;5.07;;;3.47;;
15643;SDS011;7921;43.586;1.408;2024-02-21T09:32:48;5.40;;;3.87;;
15643;SDS011;7921;43.586;1.408;2024-02-21T09:35:14;6.07;;;3.47;;
15643;SDS011;7921;43.586;1.408;2024-02-21T09:37:40;5.53;;;3.60;;
15643;SDS011;7921;43.586;1.408;2024-02-21T09:40:05;5.37;;;3.27;;
15643;SDS011;7921;43.586;1.408;2024-02-21T09:42:38;4.97;;;3.80;;
15643;SDS011;7921;43.586;1.408;2024-02-21T09:45:27;5.47;;;3.43;;
15643;SDS011;7921;43.586;1.408;2024-02-21T09:50:36;5.93;;;3.77;;
15643;SDS011;7921;43.586;1.408;2024-02-21T09:53:05;5.63;;;3.60;;
15643;SDS011;7921;43.586;1.408;2024-02-21T09:55:32;4.53;;;3.23;;
15643;SDS011;7921;43.586;1.408;2024-02-21T09:57:59;5.10;;;3.50;;
15643;SDS011;7921;43.586;1.408;2024-02-21T10:00:26;5.63;;;3.60;;
15643;SDS011;7921;43.586;1.408;2024-02-21T10:02:53;4.30;;;3.27;;
15643;SDS011;7921;43.586;1.408;2024-02-21T10:05:18;4.53;;;3.10;;
15643;SDS011;7921;43.586;1.408;2024-02-21T10:07:44;4.00;;;2.90;;
15643;SDS011;7921;43.586;1.408;2024-02-21T10:10:10;4.67;;;3.20;;
15643;SDS011;7921;43.586;1.408;2024-02-21T10:12:35;5.90;;;3.47;;
15643;SDS011;7921;43.586;1.408;2024-02-21T10:15:01;4.70;;;3.10;;
15643;SDS011;7921;43.586;1.408;2024-02-21T10:17:27;3.80;;;2.90;;
15643;SDS011;7921;43.586;1.408;2024-02-21T10:19:52;3.70;;;2.87;;
15643;SDS011;7921;43.586;1.408;2024-02-21T10:22:18;4.47;;;2.93;;
15643;SDS011;7921;43.586;1.408;2024-02-21T10:24:45;6.50;;;3.20;;
15643;SDS011;7921;43.586;1.408;2024-02-21T10:27:10;5.90;;;3.17;;
15643;SDS011;7921;43.586;1.408;2024-02-21T10:29:36;3.83;;;3.10;;
15643;SDS011;7921;43.586;1.408;2024-02-21T10:32:05;5.73;;;2.77;;
15643;SDS011;7921;43.586;1.408;2024-02-21T10:34:32;3.70;;;3.10;;
15643;SDS011;7921;43.586;1.408;2024-02-21T10:37:01;5.27;;;3.20;;
15643;SDS011;7921;43.586;1.408;2024-02-21T10:39:31;4.13;;;2.90;;
15643;SDS011;7921;43.586;1.408;2024-02-21T10:41:59;3.60;;;3.30;;
15643;SDS011;7921;43.586;1.408;2024-02-21T10:44:28;3.80;;;2.83;;
15643;SDS011;7921;43.586;1.408;2024-02-21T10:46:55;6.53;;;3.20;;
15643;SDS011;7921;43.586;1.408;2024-02-21T10:49:24;4.30;;;3.37;;
15643;SDS011;7921;43.586;1.408;2024-02-21T10:51:50;5.40;;;2.87;;
15643;SDS011;7921;43.586;1.408;2024-02-21T10:54:45;4.13;;;2.67;;
15643;SDS011;7921;43.586;1.408;2024-02-21T10:57:15;5.10;;;2.93;;
15643;SDS011;7921;43.586;1.408;2024-02-21T10:59:41;3.47;;;3.03;;
15643;SDS011;7921;43.586;1.408;2024-02-21T11:02:09;3.20;;;2.87;;
15643;SDS011;7921;43.586;1.408;2024-02-21T11:04:35;3.10;;;2.80;;
15643;SDS011;7921;43.586;1.408;2024-02-21T11:07:01;4.20;;;2.53;;
15643;SDS011;7921;43.586;1.408;2024-02-21T11:09:31;3.90;;;2.27;;
15643;SDS011;7921;43.586;1.408;2024-02-21T11:12:02;4.90;;;2.43;;
15643;SDS011;7921;43.586;1.408;2024-02-21T11:14:28;3.97;;;2.57;;
15643;SDS011;7921;43.586;1.408;2024-02-21T11:16:57;5.10;;;2.93;;
15643;SDS011;7921;43.586;1.408;2024-02-21T11:19:24;3.70;;;1.80;;
15643;SDS011;7921;43.586;1.408;2024-02-21T11:21:50;1.63;;;1.53;;
15643;SDS011;7921;43.586;1.408;2024-02-21T11:24:29;2.20;;;1.47;;
15643;SDS011;7921;43.586;1.408;2024-02-21T11:26:56;1.50;;;1.40;;
15643;SDS011;7921;43.586;1.408;2024-02-21T11:29:32;2.87;;;1.57;;
15643;SDS011;7921;43.586;1.408;2024-02-21T11:31:57;1.93;;;1.20;;
15643;SDS011;7921;43.586;1.408;2024-02-21T11:34:22;2.33;;;1.13;;
15643;SDS011;7921;43.586;1.408;2024-02-21T11:36:51;1.90;;;1.20;;
15643;SDS011;7921;43.586;1.408;2024-02-21T11:39:26;2.40;;;1.30;;
15643;SDS011;7921;43.586;1.408;2024-02-21T11:44:27;3.57;;;1.03;;
15643;SDS011;7921;43.586;1.408;2024-02-21T11:46:52;1.47;;;1.17;;
15643;SDS011;7921;43.586;1.408;2024-02-21T11:49:17;2.03;;;1.10;;
15643;SDS011;7921;43.586;1.408;2024-02-21T11:51:43;2.13;;;1.30;;
15643;SDS011;7921;43.586;1.408;2024-02-21T11:54:08;2.40;;;1.47;;
15643;SDS011;7921;43.586;1.408;2024-02-21T11:56:34;2.23;;;1.40;;
15643;SDS011;7921;43.586;1.408;2024-02-21T11:59:00;3.43;;;1.30;;
15643;SDS011;7921;43.586;1.408;2024-02-21T12:01:25;1.77;;;1.20;;
15643;SDS011;7921;43.586;1.408;2024-02-21T12:03:51;1.70;;;1.20;;
15643;SDS011;7921;43.586;1.408;2024-02-21T12:06:17;1.43;;;1.13;;
15643;SDS011;7921;43.586;1.408;2024-02-21T12:08:47;2.33;;;1.73;;
15643;SDS011;7921;43.586;1.408;2024-02-21T12:11:16;3.57;;;1.30;;
15643;SDS011;7921;43.586;1.408;2024-02-21T12:13:43;1.83;;;1.20;;
15643;SDS011;7921;43.586;1.408;2024-02-21T12:16:08;1.67;;;1.57;;
15643;SDS011;7921;43.586;1.408;2024-02-21T12:18:34;1.63;;;1.00;;
15643;SDS011;7921;43.586;1.408;2024-02-21T12:20:59;1.67;;;1.20;;
15643;SDS011;7921;43.586;1.408;2024-02-21T12:23:29;2.03;;;0.97;;
15643;SDS011;7921;43.586;1.408;2024-02-21T12:25:54;2.87;;;1.10;;
15643;SDS011;7921;43.586;1.408;2024-02-21T12:28:20;1.57;;;1.10;;
15643;SDS011;7921;43.586;1.408;2024-02-21T12:30:47;2.10;;;1.17;;
15643;SDS011;7921;43.586;1.408;2024-02-21T12:33:12;2.50;;;1.10;;
15643;SDS011;7921;43.586;1.408;2024-02-21T12:35:39;1.93;;;1.00;;
15643;SDS011;7921;43.586;1.408;2024-02-21T12:38:04;1.67;;;1.00;;
15643;SDS011;7921;43.586;1.408;2024-02-21T12:40:30;1.73;;;1.03;;
15643;SDS011;7921;43.586;1.408;2024-02-21T12:43:01;2.00;;;1.20;;
15643;SDS011;7921;43.586;1.408;2024-02-21T12:45:28;1.67;;;1.00;;
15643;SDS011;7921;43.586;1.408;2024-02-21T12:47:53;1.57;;;1.03;;
15643;SDS011;7921;43.586;1.408;2024-02-21T12:50:18;1.13;;;0.97;;
15643;SDS011;7921;43.586;1.408;2024-02-21T12:52:44;2.20;;;1.10;;
15643;SDS011;7921;43.586;1.408;2024-02-21T12:55:10;3.43;;;1.33;;
15643;SDS011;7921;43.586;1.408;2024-02-21T12:57:37;1.50;;;1.20;;
15643;SDS011;7921;43.586;1.408;2024-02-21T13:00:02;1.83;;;1.17;;
15643;SDS011;7921;43.586;1.408;2024-02-21T13:02:28;2.17;;;1.20;;
15643;SDS011;7921;43.586;1.408;2024-02-21T13:04:54;1.10;;;1.00;;
15643;SDS011;7921;43.586;1.408;2024-02-21T13:07:19;1.53;;;1.43;;
15643;SDS011;7921;43.586;1.408;2024-02-21T13:09:45;1.93;;;1.10;;
15643;SDS011;7921;43.586;1.408;2024-02-21T13:12:10;2.00;;;1.20;;
15643;SDS011;7921;43.586;1.408;2024-02-21T13:14:36;1.57;;;0.97;;
15643;SDS011;7921;43.586;1.408;2024-02-21T13:17:03;1.53;;;1.20;;
15643;SDS011;7921;43.586;1.408;2024-02-21T13:19:29;1.53;;;1.30;;
15643;SDS011;7921;43.586;1.408;2024-02-21T13:21:54;2.93;;;1.00;;
15643;SDS011;7921;43.586;1.408;2024-02-21T13:24:20;1.60;;;1.23;;
15643;SDS011;7921;43.586;1.408;2024-02-21T13:26:45;1.53;;;1.03;;
15643;SDS011;7921;43.586;1.408;2024-02-21T13:29:10;2.53;;;1.40;;
15643;SDS011;7921;43.586;1.408;2024-02-21T13:31:36;1.20;;;1.00;;
15643;SDS011;7921;43.586;1.408;2024-02-21T13:34:02;1.70;;;1.47;;
15643;SDS011;7921;43.586;1.408;2024-02-21T13:36:28;1.93;;;1.43;;
15643;SDS011;7921;43.586;1.408;2024-02-21T13:38:53;1.23;;;1.00;;
15643;SDS011;7921;43.586;1.408;2024-02-21T13:41:18;1.07;;;0.97;;
15643;SDS011;7921;43.586;1.408;2024-02-21T13:43:44;1.10;;;1.00;;
15643;SDS011;7921;43.586;1.408;2024-02-21T13:46:11;1.63;;;0.93;;
15643;SDS011;7921;43.586;1.408;2024-02-21T13:48:37;1.00;;;0.90;;
15643;SDS011;7921;43.586;1.408;2024-02-21T13:51:02;2.43;;;1.40;;
15643;SDS011;7921;43.586;1.408;2024-02-21T13:53:28;1.30;;;1.20;;
15643;SDS011;7921;43.586;1.408;2024-02-21T13:55:53;2.30;;;1.20;;
15643;SDS011;7921;43.586;1.408;2024-02-21T13:58:19;1.87;;;1.13;;
15643;SDS011;7921;43.586;1.408;2024-02-21T14:00:45;2.10;;;1.10;;
15643;SDS011;7921;43.586;1.408;2024-02-21T14:03:10;1.20;;;1.10;;
15643;SDS011;7921;43.586;1.408;2024-02-21T14:05:36;1.43;;;1.07;;
15643;SDS011;7921;43.586;1.408;2024-02-21T14:08:01;2.80;;;1.30;;
15643;SDS011;7921;43.586;1.408;2024-02-21T14:10:26;2.30;;;1.10;;
15643;SDS011;7921;43.586;1.408;2024-02-21T14:12:53;2.20;;;1.60;;
15643;SDS011;7921;43.586;1.408;2024-02-21T14:15:18;2.53;;;1.20;;
15643;SDS011;7921;43.586;1.408;2024-02-21T14:17:44;3.47;;;1.37;;
15643;SDS011;7921;43.586;1.408;2024-02-21T14:20:09;1.20;;;1.10;;
15643;SDS011;7921;43.586;1.408;2024-02-21T14:22:35;2.23;;;1.57;;
15643;SDS011;7921;43.586;1.408;2024-02-21T14:25:02;2.73;;;2.30;;
15643;SDS011;7921;43.586;1.408;2024-02-21T14:27:30;1.00;;;0.90;;
15643;SDS011;7921;43.586;1.408;2024-02-21T14:29:55;2.27;;;1.10;;
15643;SDS011;7921;43.586;1.408;2024-02-21T14:32:21;1.33;;;1.00;;
15643;SDS011;7921;43.586;1.408;2024-02-21T14:34:46;1.30;;;1.00;;
15643;SDS011;7921;43.586;1.408;2024-02-21T14:37:12;3.33;;;1.30;;
15643;SDS011;7921;43.586;1.408;2024-02-21T14:39:37;1.20;;;0.90;;
15643;SDS011;7921;43.586;1.408;2024-02-21T14:42:02;0.90;;;0.90;;
15643;SDS011;7921;43.586;1.408;2024-02-21T14:44:28;4.10;;;1.40;;
15643;SDS011;7921;43.586;1.408;2024-02-21T14:46:53;1.70;;;1.30;;
15643;SDS011;7921;43.586;1.408;2024-02-21T14:49:19;2.30;;;1.80;;
15643;SDS011;7921;43.586;1.408;2024-02-21T14:51:44;1.57;;;1.20;;
15643;SDS011;7921;43.586;1.408;2024-02-21T14:54:10;2.37;;;1.30;;
15643;SDS011;7921;43.586;1.408;2024-02-21T14:56:35;2.13;;;1.70;;
15643;SDS011;7921;43.586;1.408;2024-02-21T14:59:01;4.03;;;1.53;;
15643;SDS011;7921;43.586;1.408;2024-02-21T15:01:26;1.83;;;1.40;;
15643;SDS011;7921;43.586;1.408;2024-02-21T15:03:52;2.47;;;1.10;;